createdAt,value
2018-12-23T00:00:35.742Z,93.60
2018-12-23T00:03:05.031Z,93.60
2018-12-23T00:05:34.249Z,93.80
2018-12-23T00:08:03.362Z,93.70
2018-12-23T00:10:32.444Z,93.50
2018-12-23T00:13:01.563Z,93.60
2018-12-23T00:15:30.698Z,93.60
2018-12-23T00:17:59.832Z,93.40
2018-12-23T00:20:29.103Z,93.60
2018-12-23T00:22:58.218Z,93.60
2018-12-23T00:25:27.265Z,93.70
2018-12-23T00:27:56.483Z,93.60
2018-12-23T00:30:25.837Z,93.70
2018-12-23T00:32:54.977Z,93.80
2018-12-23T00:35:24.226Z,93.80
2018-12-23T00:37:53.597Z,93.50
2018-12-23T00:40:22.637Z,93.80
2018-12-23T00:42:51.784Z,94.00
2018-12-23T00:45:20.920Z,93.70
2018-12-23T00:47:50.045Z,93.80
2018-12-23T00:50:19.084Z,93.50
2018-12-23T00:52:48.341Z,93.70
2018-12-23T00:55:17.445Z,93.60
2018-12-23T00:57:46.440Z,93.30
2018-12-23T01:00:15.641Z,93.40
2018-12-23T01:02:44.692Z,93.60
2018-12-23T01:05:13.798Z,93.80
2018-12-23T01:07:42.893Z,93.70
2018-12-23T01:10:12.069Z,93.70
2018-12-23T01:12:41.204Z,93.80
2018-12-23T01:15:10.273Z,94.00
2018-12-23T01:17:39.412Z,93.80
2018-12-23T01:20:09.219Z,93.70
2018-12-23T01:22:38.335Z,93.50
2018-12-23T01:25:09.418Z,93.20
2018-12-23T01:27:38.513Z,93.30
2018-12-23T01:30:07.607Z,93.50
2018-12-23T01:32:36.736Z,93.30
2018-12-23T01:35:06.025Z,93.50
2018-12-23T01:37:35.096Z,94.00
2018-12-23T01:40:04.488Z,93.80
2018-12-23T01:42:33.670Z,93.40
2018-12-23T01:45:02.707Z,93.60
2018-12-23T01:47:32.925Z,93.00
2018-12-23T01:50:02.027Z,93.20
2018-12-23T01:52:31.144Z,93.40
2018-12-23T01:55:00.306Z,93.10
2018-12-23T01:57:29.426Z,93.00
2018-12-23T01:59:58.724Z,92.90
2018-12-23T02:02:27.781Z,92.50
2018-12-23T02:04:56.970Z,92.50
2018-12-23T02:07:26.017Z,92.50
2018-12-23T02:09:55.113Z,92.70
2018-12-23T02:12:24.199Z,92.80
2018-12-23T02:14:53.331Z,92.80
2018-12-23T02:17:22.361Z,92.70
2018-12-23T02:19:51.397Z,92.80
2018-12-23T02:22:20.433Z,93.40
2018-12-23T02:24:49.519Z,92.70
2018-12-23T02:27:18.573Z,92.90
2018-12-23T02:29:47.644Z,92.90
2018-12-23T02:32:16.889Z,92.90
2018-12-23T02:34:45.951Z,92.30
2018-12-23T02:37:15.047Z,92.20
2018-12-23T02:39:44.108Z,92.30
2018-12-23T02:42:13.522Z,92.10
2018-12-23T02:44:42.530Z,92.40
2018-12-23T02:47:11.717Z,92.00
2018-12-23T02:49:40.892Z,92.10
2018-12-23T02:52:09.932Z,92.10
2018-12-23T02:54:39.062Z,92.00
2018-12-23T02:57:08.239Z,91.60
2018-12-23T02:59:37.373Z,91.80
2018-12-23T03:02:06.397Z,91.60
2018-12-23T03:04:35.427Z,91.40
2018-12-23T03:07:04.632Z,91.60
2018-12-23T03:09:33.805Z,91.60
2018-12-23T03:12:02.863Z,92.20
2018-12-23T03:14:32.022Z,92.00
2018-12-23T03:17:01.186Z,91.70
2018-12-23T03:19:30.430Z,91.40
2018-12-23T03:21:59.469Z,91.60
2018-12-23T03:24:28.678Z,91.60
2018-12-23T03:26:57.710Z,91.30
2018-12-23T03:29:26.915Z,91.30
2018-12-23T03:31:55.958Z,91.80
2018-12-23T03:34:25.005Z,91.90
2018-12-23T03:36:54.117Z,91.70
2018-12-23T03:39:23.208Z,91.70
2018-12-23T03:41:52.332Z,91.90
2018-12-23T03:44:21.451Z,91.60
2018-12-23T03:46:50.501Z,91.50
2018-12-23T03:49:19.652Z,91.70
2018-12-23T03:51:48.843Z,91.60
2018-12-23T03:54:18.297Z,91.90
2018-12-23T03:56:47.346Z,91.80
2018-12-23T03:59:16.545Z,92.10
2018-12-23T04:01:45.585Z,92.30
2018-12-23T04:04:14.635Z,92.00
2018-12-23T04:06:43.798Z,92.30
2018-12-23T04:09:12.886Z,92.10
2018-12-23T04:11:41.955Z,92.10
2018-12-23T04:14:11.092Z,92.20
2018-12-23T04:16:40.111Z,92.10
2018-12-23T04:19:09.233Z,92.20
2018-12-23T04:21:38.305Z,92.10
2018-12-23T04:24:07.581Z,92.30
2018-12-23T04:26:36.673Z,92.20
2018-12-23T04:29:06.002Z,91.90
2018-12-23T04:31:35.062Z,92.00
2018-12-23T04:34:04.177Z,91.90
2018-12-23T04:36:34.294Z,92.10
2018-12-23T04:39:04.689Z,92.10
2018-12-23T04:41:33.861Z,91.70
2018-12-23T04:44:02.970Z,91.90
2018-12-23T04:46:32.205Z,91.60
2018-12-23T04:49:01.228Z,92.20
2018-12-23T04:51:30.254Z,91.90
2018-12-23T04:53:59.311Z,92.10
2018-12-23T04:56:28.470Z,92.00
2018-12-23T04:58:57.514Z,92.10
2018-12-23T05:01:26.777Z,92.50
2018-12-23T05:03:55.965Z,92.20
2018-12-23T05:06:25.073Z,91.80
2018-12-23T05:08:54.068Z,92.10
2018-12-23T05:11:23.085Z,92.20
2018-12-23T05:13:52.389Z,92.20
2018-12-23T05:16:21.442Z,92.00
2018-12-23T05:18:50.741Z,92.40
2018-12-23T05:21:19.757Z,92.00
2018-12-23T05:23:48.838Z,92.30
2018-12-23T05:26:18.010Z,92.20
2018-12-23T05:28:47.064Z,92.60
2018-12-23T05:31:16.394Z,92.40
2018-12-23T05:33:45.461Z,92.70
2018-12-23T05:36:14.556Z,92.30
2018-12-23T05:38:43.677Z,92.50
2018-12-23T05:41:12.948Z,92.60
2018-12-23T05:43:42.014Z,92.50
2018-12-23T05:46:11.387Z,92.40
2018-12-23T05:48:40.563Z,92.20
2018-12-23T05:51:09.634Z,92.50
2018-12-23T05:53:38.917Z,92.50
2018-12-23T05:56:08.040Z,92.60
2018-12-23T05:58:37.342Z,92.60
2018-12-23T06:01:06.447Z,92.80
2018-12-23T06:03:35.657Z,92.20
2018-12-23T06:06:04.995Z,92.30
2018-12-23T06:08:34.225Z,92.40
2018-12-23T06:11:03.393Z,92.40
2018-12-23T06:13:32.492Z,92.70
2018-12-23T06:16:01.691Z,92.80
2018-12-23T06:18:30.801Z,92.90
2018-12-23T06:20:59.933Z,92.70
2018-12-23T06:23:29.097Z,92.70
2018-12-23T06:25:58.134Z,92.70
2018-12-23T06:28:27.532Z,92.70
2018-12-23T06:30:56.705Z,92.60
2018-12-23T06:33:25.713Z,92.60
2018-12-23T06:35:55.050Z,92.70
2018-12-23T06:38:24.096Z,92.60
2018-12-23T06:40:53.169Z,92.50
2018-12-23T06:43:22.196Z,92.60
2018-12-23T06:45:51.286Z,92.70
2018-12-23T06:48:20.435Z,92.90
2018-12-23T06:50:49.693Z,92.60
2018-12-23T06:53:18.914Z,92.80
2018-12-23T06:55:54.893Z,93.10
2018-12-23T06:58:23.926Z,93.10
2018-12-23T07:00:53.346Z,93.10
2018-12-23T07:03:22.507Z,93.20
2018-12-23T07:05:51.938Z,93.00
2018-12-23T07:08:21.057Z,93.20
2018-12-23T07:10:50.450Z,93.00
2018-12-23T07:13:20.028Z,93.10
2018-12-23T07:15:49.117Z,93.10
2018-12-23T07:18:18.429Z,93.30
2018-12-23T07:20:47.451Z,92.90
2018-12-23T07:23:16.529Z,93.10
2018-12-23T07:25:45.909Z,93.40
2018-12-23T07:28:15.081Z,93.30
2018-12-23T07:30:44.407Z,93.40
2018-12-23T07:33:14.030Z,93.20
2018-12-23T07:35:43.312Z,93.50
2018-12-23T07:38:12.498Z,93.20
2018-12-23T07:40:41.503Z,93.70
2018-12-23T07:43:11.093Z,93.30
2018-12-23T07:45:40.117Z,93.50
2018-12-23T07:48:09.225Z,93.50
2018-12-23T07:50:38.505Z,93.40
2018-12-23T07:53:08.764Z,93.30
2018-12-23T07:55:37.773Z,93.60
2018-12-23T07:58:06.953Z,93.60
2018-12-23T08:00:36.140Z,93.40
2018-12-23T08:03:05.399Z,93.50
2018-12-23T08:05:34.602Z,93.80
2018-12-23T08:08:03.801Z,93.50
2018-12-23T08:10:32.803Z,93.70
2018-12-23T08:13:01.937Z,93.60
2018-12-23T08:15:31.294Z,93.40
2018-12-23T08:18:00.501Z,93.50
2018-12-23T08:20:29.910Z,93.50
2018-12-23T08:22:59.194Z,93.50
2018-12-23T08:25:35.599Z,93.20
2018-12-23T08:28:00.010Z,93.60
2018-12-23T08:30:29.232Z,93.40
2018-12-23T08:32:58.494Z,93.40
2018-12-23T08:35:27.593Z,93.30
2018-12-23T08:37:56.772Z,93.20
2018-12-23T08:40:26.094Z,93.40
2018-12-23T08:42:55.390Z,93.20
2018-12-23T08:45:24.437Z,93.30
2018-12-23T08:47:53.526Z,93.30
2018-12-23T08:50:22.612Z,93.30
2018-12-23T08:52:51.712Z,93.30
2018-12-23T08:55:20.764Z,93.40
2018-12-23T08:57:49.973Z,93.10
2018-12-23T09:00:19.167Z,93.10
2018-12-23T09:02:48.271Z,93.00
2018-12-23T09:05:17.440Z,93.00
2018-12-23T09:07:53.039Z,92.70
2018-12-23T09:10:17.565Z,92.90
2018-12-23T09:12:46.617Z,93.10
2018-12-23T09:15:15.748Z,93.10
2018-12-23T09:17:44.840Z,92.60
2018-12-23T09:20:13.913Z,92.90
2018-12-23T09:22:42.996Z,92.70
2018-12-23T09:25:12.177Z,92.70
2018-12-23T09:27:41.262Z,92.50
2018-12-23T09:30:10.393Z,92.70
2018-12-23T09:32:39.447Z,92.70
2018-12-23T09:35:08.598Z,92.50
2018-12-23T09:37:37.849Z,92.60
2018-12-23T09:40:07.076Z,92.60
2018-12-23T09:42:36.167Z,92.40
2018-12-23T09:45:05.957Z,92.50
2018-12-23T09:47:34.993Z,92.50
2018-12-23T09:50:04.347Z,92.00
2018-12-23T09:52:33.631Z,92.20
2018-12-23T09:55:02.682Z,92.40
2018-12-23T09:57:32.017Z,92.30
2018-12-23T10:00:01.098Z,92.40
2018-12-23T10:02:30.240Z,92.20
2018-12-23T10:04:59.321Z,91.90
2018-12-23T10:07:28.481Z,91.70
2018-12-23T10:09:57.591Z,91.30
2018-12-23T10:12:26.649Z,90.90
2018-12-23T10:14:55.729Z,90.40
2018-12-23T10:17:24.860Z,90.90
2018-12-23T10:19:53.897Z,90.50
2018-12-23T10:22:22.940Z,90.10
2018-12-23T10:24:51.987Z,90.30
2018-12-23T10:27:22.504Z,90.40
2018-12-23T10:29:52.127Z,90.00
2018-12-23T10:32:21.165Z,89.00
2018-12-23T10:34:50.622Z,88.60
2018-12-23T10:37:19.982Z,89.20
2018-12-23T10:39:49.177Z,90.00
2018-12-23T10:42:18.376Z,89.90
2018-12-23T10:44:47.669Z,90.00
2018-12-23T10:47:17.763Z,89.10
2018-12-23T10:49:47.943Z,89.10
2018-12-23T10:52:17.141Z,89.20
2018-12-23T10:54:46.213Z,90.10
2018-12-23T10:57:15.462Z,89.50
2018-12-23T10:59:44.733Z,89.70
2018-12-23T11:02:14.068Z,89.30
2018-12-23T11:04:43.395Z,89.70
2018-12-23T11:07:12.424Z,89.80
2018-12-23T11:09:42.685Z,89.70
2018-12-23T11:12:11.744Z,89.40
2018-12-23T11:14:40.775Z,88.90
2018-12-23T11:17:09.900Z,88.30
2018-12-23T11:19:39.086Z,87.60
2018-12-23T11:22:08.235Z,88.10
2018-12-23T11:24:37.219Z,87.50
2018-12-23T11:27:06.212Z,87.70
2018-12-23T11:29:35.261Z,87.70
2018-12-23T11:32:04.379Z,87.40
2018-12-23T11:34:34.599Z,86.60
2018-12-23T11:37:03.722Z,87.40
2018-12-23T11:39:32.995Z,86.50
2018-12-23T11:42:02.037Z,87.60
2018-12-23T11:44:31.126Z,86.90
2018-12-23T11:47:00.152Z,86.70
2018-12-23T11:49:29.165Z,87.50
2018-12-23T11:51:58.241Z,86.90
2018-12-23T11:54:27.277Z,87.40
2018-12-23T11:56:56.399Z,85.60
2018-12-23T11:59:25.444Z,86.20
2018-12-23T12:01:54.500Z,85.40
2018-12-23T12:04:23.553Z,85.60
2018-12-23T12:06:52.697Z,85.50
2018-12-23T12:09:21.776Z,85.20
2018-12-23T12:11:51.063Z,85.60
2018-12-23T12:14:20.321Z,86.40
2018-12-23T12:16:49.351Z,86.90
2018-12-23T12:19:18.434Z,86.60
2018-12-23T12:21:47.557Z,86.90
2018-12-23T12:24:16.635Z,86.80
2018-12-23T12:26:45.676Z,87.60
2018-12-23T12:29:14.803Z,88.20
2018-12-23T12:31:43.870Z,88.10
2018-12-23T12:34:12.990Z,88.30
2018-12-23T12:36:42.010Z,88.80
2018-12-23T12:39:11.106Z,88.40
2018-12-23T12:41:40.232Z,88.70
2018-12-23T12:44:09.340Z,88.00
2018-12-23T12:46:38.400Z,88.00
2018-12-23T12:49:07.822Z,87.40
2018-12-23T12:51:37.140Z,88.20
2018-12-23T12:54:06.241Z,89.00
2018-12-23T12:56:35.291Z,89.40
2018-12-23T12:59:04.469Z,88.80
2018-12-23T13:01:33.464Z,89.80
2018-12-23T13:04:02.529Z,89.20
2018-12-23T13:06:31.552Z,89.40
2018-12-23T13:09:00.924Z,89.60
2018-12-23T13:11:32.089Z,89.70
2018-12-23T13:14:01.287Z,89.40
2018-12-23T13:16:30.321Z,90.00
2018-12-23T13:18:59.325Z,88.90
2018-12-23T13:21:28.423Z,89.10
2018-12-23T13:23:57.516Z,88.40
2018-12-23T13:26:26.697Z,89.20
2018-12-23T13:28:55.781Z,89.80
2018-12-23T13:31:24.805Z,89.10
2018-12-23T13:33:53.845Z,89.20
2018-12-23T13:36:24.228Z,89.10
2018-12-23T13:38:53.382Z,89.50
2018-12-23T13:41:37.052Z,89.60
2018-12-23T13:44:17.414Z,90.10
2018-12-23T13:47:11.806Z,89.70
2018-12-23T13:52:01.901Z,89.90
2018-12-23T13:54:50.923Z,89.90
2018-12-23T13:59:38.490Z,89.90
2018-12-23T14:02:20.288Z,90.40
2018-12-23T14:04:59.602Z,90.40
2018-12-23T14:07:39.793Z,90.40
2018-12-23T14:10:26.808Z,90.50
2018-12-23T14:12:55.989Z,90.80
2018-12-23T14:15:25.221Z,90.90
2018-12-23T14:17:54.228Z,91.20
2018-12-23T14:20:23.317Z,91.30
2018-12-23T14:22:52.427Z,91.40
2018-12-23T14:25:21.647Z,91.70
2018-12-23T14:27:50.731Z,92.00
2018-12-23T14:30:19.901Z,92.40
2018-12-23T14:32:49.060Z,92.90
2018-12-23T14:35:18.086Z,93.50
2018-12-23T14:37:47.365Z,94.10
2018-12-23T14:40:16.496Z,94.40
2018-12-23T14:42:45.492Z,94.70
2018-12-23T14:45:14.650Z,95.10
2018-12-23T14:47:43.709Z,95.50
2018-12-23T14:50:12.941Z,96.00
2018-12-23T14:52:42.045Z,96.30
2018-12-23T14:55:11.117Z,96.50
2018-12-23T14:57:40.193Z,96.70
2018-12-23T15:00:10.157Z,97.00
2018-12-23T15:02:39.250Z,97.20
2018-12-23T15:05:08.293Z,97.50
2018-12-23T15:07:37.439Z,97.70
2018-12-23T15:10:07.517Z,98.10
2018-12-23T15:12:36.613Z,98.40
2018-12-23T15:15:06.071Z,98.60
2018-12-23T15:17:35.199Z,98.90
2018-12-23T15:20:04.652Z,99.10
2018-12-23T15:22:33.805Z,99.30
2018-12-23T15:25:03.110Z,99.40
2018-12-23T15:27:32.195Z,99.50
2018-12-23T15:30:02.085Z,99.50
2018-12-23T15:32:31.218Z,99.70
2018-12-23T15:35:00.452Z,99.50
2018-12-23T15:37:29.845Z,99.90
2018-12-23T15:39:59.197Z,99.90
2018-12-23T15:42:28.353Z,99.90
2018-12-23T15:44:57.475Z,99.90
2018-12-23T15:47:26.654Z,99.90
2018-12-23T15:49:55.740Z,99.90
2018-12-23T15:52:24.788Z,99.90
2018-12-23T15:54:53.978Z,99.90
2018-12-23T15:57:23.129Z,99.90
2018-12-23T15:59:52.331Z,99.90
2018-12-23T16:02:22.326Z,99.90
2018-12-23T16:04:51.436Z,99.90
2018-12-23T16:07:20.474Z,99.90
2018-12-23T16:09:51.310Z,99.90
2018-12-23T16:12:20.654Z,99.90
2018-12-23T16:14:49.757Z,99.90
2018-12-23T16:17:18.838Z,99.90
2018-12-23T16:19:47.912Z,99.90
2018-12-23T16:22:16.973Z,99.90
2018-12-23T16:24:46.151Z,99.90
2018-12-23T16:27:15.224Z,99.90
2018-12-23T16:29:44.238Z,99.90
2018-12-23T16:32:13.339Z,99.90
2018-12-23T16:34:42.429Z,99.90
2018-12-23T16:37:11.672Z,99.90
2018-12-23T16:39:40.672Z,99.90
2018-12-23T16:42:09.680Z,99.90
2018-12-23T16:44:38.721Z,99.90
2018-12-23T16:47:07.810Z,99.90
2018-12-23T16:49:36.926Z,99.90
2018-12-23T16:52:05.962Z,99.90
2018-12-23T16:54:35.008Z,99.90
2018-12-23T16:57:04.048Z,99.90
2018-12-23T16:59:33.134Z,99.90
2018-12-23T17:02:02.360Z,99.90
2018-12-23T17:04:31.585Z,99.90
2018-12-23T17:07:00.720Z,99.90
2018-12-23T17:09:29.889Z,99.90
2018-12-23T17:11:58.934Z,99.90
2018-12-23T17:14:27.931Z,99.90
2018-12-23T17:16:56.965Z,99.90
2018-12-23T17:19:26.018Z,99.90
2018-12-23T17:21:55.072Z,99.90
2018-12-23T17:24:24.213Z,99.90
2018-12-23T17:26:53.361Z,99.90
2018-12-23T17:29:22.440Z,99.90
2018-12-23T17:31:51.489Z,99.90
2018-12-23T17:34:20.669Z,99.90
2018-12-23T17:36:49.712Z,99.90
2018-12-23T17:39:18.764Z,99.90
2018-12-23T17:41:47.909Z,99.90
2018-12-23T17:44:16.986Z,99.90
2018-12-23T17:46:46.012Z,99.90
2018-12-23T17:49:15.090Z,99.90
2018-12-23T17:51:44.167Z,99.90
2018-12-23T17:54:13.276Z,99.90
2018-12-23T17:56:42.252Z,99.90
2018-12-23T17:59:11.353Z,99.90
2018-12-23T18:01:40.462Z,99.90
2018-12-23T18:04:09.751Z,99.90
2018-12-23T18:06:39.048Z,99.90
2018-12-23T18:09:08.053Z,99.90
2018-12-23T18:11:37.156Z,99.90
2018-12-23T18:14:06.403Z,99.90
2018-12-23T18:16:35.514Z,99.90
2018-12-23T18:19:05.030Z,99.90
2018-12-23T18:21:34.181Z,99.90
2018-12-23T18:24:03.253Z,99.90
2018-12-23T18:26:32.517Z,99.90
2018-12-23T18:29:01.595Z,99.90
2018-12-23T18:31:30.751Z,99.90
2018-12-23T18:33:59.771Z,99.90
2018-12-23T18:36:28.893Z,99.90
2018-12-23T18:38:58.788Z,99.90
2018-12-23T18:41:27.876Z,99.90
2018-12-23T18:43:56.939Z,99.90
2018-12-23T18:46:26.024Z,99.90
2018-12-23T18:48:55.078Z,99.90
2018-12-23T18:51:24.187Z,99.90
2018-12-23T18:53:53.246Z,99.90
2018-12-23T18:56:30.405Z,99.90
2018-12-23T18:58:59.537Z,99.90
2018-12-23T19:01:28.876Z,99.90
2018-12-23T19:03:58.104Z,99.90
2018-12-23T19:06:27.191Z,99.90
2018-12-23T19:09:10.775Z,99.90
2018-12-23T19:12:51.544Z,99.90
2018-12-23T19:15:41.011Z,99.90
2018-12-23T19:18:19.859Z,99.90
2018-12-23T19:23:02.288Z,99.90
2018-12-23T19:27:45.579Z,99.90
2018-12-23T19:30:36.019Z,99.90
2018-12-23T19:33:13.341Z,99.90
2018-12-23T19:35:59.182Z,99.90
2018-12-23T19:38:37.117Z,99.90
2018-12-23T19:41:16.015Z,99.90
2018-12-23T19:46:12.182Z,99.90
2018-12-23T19:48:54.099Z,99.90
2018-12-23T19:52:03.328Z,99.90
2018-12-23T19:56:45.605Z,99.90
2018-12-23T20:01:36.497Z,99.90
2018-12-23T20:04:30.254Z,99.90
2018-12-23T20:08:16.422Z,99.90
2018-12-23T20:11:02.177Z,99.90
2018-12-23T20:13:47.237Z,99.90
2018-12-23T20:16:27.267Z,99.90
2018-12-23T20:21:15.093Z,99.90
2018-12-23T20:24:01.153Z,99.90
2018-12-23T20:28:47.100Z,99.90
2018-12-23T20:33:31.317Z,99.90
2018-12-23T20:37:11.090Z,99.90
2018-12-23T20:39:53.397Z,99.90
2018-12-23T20:42:36.678Z,99.90
2018-12-23T20:46:20.713Z,99.90
2018-12-23T20:49:06.684Z,99.90
2018-12-23T20:51:54.813Z,99.90
2018-12-23T20:56:45.006Z,99.90
2018-12-23T20:59:27.662Z,99.90
2018-12-23T21:04:11.005Z,99.90
2018-12-23T21:07:14.301Z,99.90
2018-12-23T21:09:58.139Z,99.90
2018-12-23T21:14:44.409Z,99.90
2018-12-23T21:17:52.975Z,99.90
2018-12-23T21:20:53.820Z,99.90
2018-12-23T21:23:50.733Z,99.90
2018-12-23T21:28:36.005Z,99.90
2018-12-23T21:33:19.201Z,99.90
2018-12-23T21:36:19.427Z,99.90
2018-12-23T21:41:07.524Z,99.90
2018-12-23T21:45:51.605Z,99.90
2018-12-23T21:48:38.875Z,99.90
2018-12-23T21:51:20.944Z,99.90
2018-12-23T21:54:31.946Z,99.90
2018-12-23T21:58:16.297Z,99.90
2018-12-23T22:01:55.210Z,99.90
2018-12-23T22:04:46.861Z,99.90
2018-12-23T22:08:06.440Z,99.90
2018-12-23T22:11:13.801Z,99.90
2018-12-23T22:13:43.998Z,99.90
2018-12-23T22:16:14.283Z,99.90
2018-12-23T22:18:44.571Z,99.90
2018-12-23T22:21:14.955Z,99.90
2018-12-23T22:23:45.373Z,99.90
2018-12-23T22:26:15.623Z,99.90
2018-12-23T22:28:46.173Z,99.90
2018-12-23T22:31:16.500Z,99.90
2018-12-23T22:33:46.810Z,99.90
2018-12-23T22:36:17.043Z,99.90
2018-12-23T22:38:47.302Z,99.90
2018-12-23T22:41:21.470Z,99.90
2018-12-23T22:43:51.811Z,99.90
2018-12-23T22:46:22.142Z,99.90
2018-12-23T22:48:52.403Z,99.90
2018-12-23T22:51:22.693Z,99.90
2018-12-23T22:53:52.994Z,99.90
2018-12-23T22:56:23.285Z,99.90
2018-12-23T22:58:53.566Z,99.90
2018-12-23T23:01:23.829Z,99.90
2018-12-23T23:03:54.010Z,99.90
2018-12-23T23:06:24.309Z,99.90
2018-12-23T23:08:54.487Z,99.90
2018-12-23T23:11:24.736Z,99.90
2018-12-23T23:13:55.031Z,99.90
2018-12-23T23:16:25.201Z,99.90
2018-12-23T23:18:55.432Z,99.90
2018-12-23T23:21:25.753Z,99.90
2018-12-23T23:23:56.065Z,99.90
2018-12-23T23:26:26.255Z,99.90
2018-12-23T23:28:56.481Z,99.90
2018-12-23T23:31:26.704Z,99.90
2018-12-23T23:33:56.862Z,99.90
2018-12-23T23:36:27.220Z,99.90
2018-12-23T23:38:57.513Z,99.90
2018-12-23T23:41:27.794Z,99.90
2018-12-23T23:43:58.009Z,99.90
2018-12-23T23:46:28.182Z,99.90
2018-12-23T23:48:58.398Z,99.90
2018-12-23T23:51:28.663Z,99.90
2018-12-23T23:53:58.887Z,99.90
2018-12-23T23:56:29.058Z,99.90
2018-12-23T23:58:59.301Z,99.90
